sensor_id;sensor_type;location;lat;lon;timestamp;pressure;altitude;pressure_sealevel;temperature;humidity
39357;BME280;25077;50.302;18.996;2022-08-01T00:00:28;97955.19;;;13.77;79.66
39357;BME280;25077;50.302;18.996;2022-08-01T00:03:30;97954.41;;;13.77;79.59
39357;BME280;25077;50.302;18.996;2022-08-01T00:06:32;97956.75;;;13.75;79.94
39357;BME280;25077;50.302;18.996;2022-08-01T00:09:35;97945.84;;;13.71;79.76
39357;BME280;25077;50.302;18.996;2022-08-01T00:12:37;97950.50;;;13.71;80.11
39357;BME280;25077;50.302;18.996;2022-08-01T00:15:39;97947.41;;;13.68;80.13
39357;BME280;25077;50.302;18.996;2022-08-01T00:18:41;97948.56;;;13.67;80.82
39357;BME280;25077;50.302;18.996;2022-08-01T00:21:43;97947.38;;;13.65;80.47
39357;BME280;25077;50.302;18.996;2022-08-01T00:24:46;97945.81;;;13.60;80.78
39357;BME280;25077;50.302;18.996;2022-08-01T00:27:48;97946.59;;;13.57;80.49
39357;BME280;25077;50.302;18.996;2022-08-01T00:30:50;97949.69;;;13.56;80.85
39357;BME280;25077;50.302;18.996;2022-08-01T00:33:52;97947.38;;;13.51;80.48
39357;BME280;25077;50.302;18.996;2022-08-01T00:36:54;97947.34;;;13.47;81.34
39357;BME280;25077;50.302;18.996;2022-08-01T00:39:57;97939.94;;;13.44;80.37
39357;BME280;25077;50.302;18.996;2022-08-01T00:43:02;97941.13;;;13.47;80.96
39357;BME280;25077;50.302;18.996;2022-08-01T00:46:04;97938.03;;;13.48;80.99
39357;BME280;25077;50.302;18.996;2022-08-01T00:49:06;97938.03;;;13.48;81.06
39357;BME280;25077;50.302;18.996;2022-08-01T00:52:09;97946.94;;;13.49;80.61
39357;BME280;25077;50.302;18.996;2022-08-01T00:55:12;97947.72;;;13.49;80.79
39357;BME280;25077;50.302;18.996;2022-08-01T00:58:15;97940.75;;;13.48;80.88
39357;BME280;25077;50.302;18.996;2022-08-01T01:01:17;97944.25;;;13.49;81.51
39357;BME280;25077;50.302;18.996;2022-08-01T01:04:21;97941.91;;;13.47;80.58
39357;BME280;25077;50.302;18.996;2022-08-01T01:07:27;97948.53;;;13.46;81.04
39357;BME280;25077;50.302;18.996;2022-08-01T01:10:42;97958.22;;;13.44;80.73
39357;BME280;25077;50.302;18.996;2022-08-01T01:13:50;97947.34;;;13.40;81.38
39357;BME280;25077;50.302;18.996;2022-08-01T01:20:13;97954.69;;;13.36;81.61
39357;BME280;25077;50.302;18.996;2022-08-01T01:23:28;97939.94;;;13.33;81.09
39357;BME280;25077;50.302;18.996;2022-08-01T01:26:40;97937.97;;;13.30;81.55
39357;BME280;25077;50.302;18.996;2022-08-01T01:29:48;97938.38;;;13.29;81.04
39357;BME280;25077;50.302;18.996;2022-08-01T01:32:53;97938.38;;;13.29;80.54
39357;BME280;25077;50.302;18.996;2022-08-01T01:36:02;97930.97;;;13.29;80.87
39357;BME280;25077;50.302;18.996;2022-08-01T01:39:05;97928.66;;;13.28;80.68
39357;BME280;25077;50.302;18.996;2022-08-01T01:42:08;97930.97;;;13.29;81.39
39357;BME280;25077;50.302;18.996;2022-08-01T01:45:13;97923.22;;;13.28;81.60
39357;BME280;25077;50.302;18.996;2022-08-01T01:48:18;97930.97;;;13.29;81.21
39357;BME280;25077;50.302;18.996;2022-08-01T01:51:21;97922.44;;;13.31;81.40
39357;BME280;25077;50.302;18.996;2022-08-01T01:54:28;97933.31;;;13.31;81.03
39357;BME280;25077;50.302;18.996;2022-08-01T01:57:32;97932.16;;;13.32;81.36
39357;BME280;25077;50.302;18.996;2022-08-01T02:00:36;97925.53;;;13.33;81.39
39357;BME280;25077;50.302;18.996;2022-08-01T02:03:39;97928.25;;;13.33;80.69
39357;BME280;25077;50.302;18.996;2022-08-01T02:06:43;97922.03;;;13.32;81.55
39357;BME280;25077;50.302;18.996;2022-08-01T02:09:47;97928.66;;;13.31;81.59
39357;BME280;25077;50.302;18.996;2022-08-01T02:12:50;97926.31;;;13.30;80.90
39357;BME280;25077;50.302;18.996;2022-08-01T02:15:54;97930.22;;;13.29;80.88
39357;BME280;25077;50.302;18.996;2022-08-01T02:18:56;97926.72;;;13.28;80.77
39357;BME280;25077;50.302;18.996;2022-08-01T02:22:01;97925.94;;;13.28;81.41
39357;BME280;25077;50.302;18.996;2022-08-01T02:25:07;97920.50;;;13.28;81.14
39357;BME280;25077;50.302;18.996;2022-08-01T02:28:15;97921.63;;;13.27;81.32
39357;BME280;25077;50.302;18.996;2022-08-01T02:31:32;97923.97;;;13.25;80.68
39357;BME280;25077;50.302;18.996;2022-08-01T02:34:36;97925.13;;;13.24;80.83
39357;BME280;25077;50.302;18.996;2022-08-01T02:37:39;97932.88;;;13.22;80.65
39357;BME280;25077;50.302;18.996;2022-08-01T02:40:46;97927.44;;;13.14;80.92
39357;BME280;25077;50.302;18.996;2022-08-01T02:43:51;97932.84;;;13.07;80.74
39357;BME280;25077;50.302;18.996;2022-08-01T02:46:57;97930.47;;;12.99;80.69
39357;BME280;25077;50.302;18.996;2022-08-01T02:50:03;97930.84;;;12.90;80.30
39357;BME280;25077;50.302;18.996;2022-08-01T02:53:12;97930.81;;;12.83;80.60
39357;BME280;25077;50.302;18.996;2022-08-01T02:56:15;97928.06;;;12.79;81.33
39357;BME280;25077;50.302;18.996;2022-08-01T02:59:21;97929.22;;;12.78;81.62
39357;BME280;25077;50.302;18.996;2022-08-01T03:02:28;97933.88;;;12.78;81.79
39357;BME280;25077;50.302;18.996;2022-08-01T03:05:31;97931.50;;;12.76;81.71
39357;BME280;25077;50.302;18.996;2022-08-01T03:08:35;97938.53;;;12.77;81.57
39357;BME280;25077;50.302;18.996;2022-08-01T03:11:39;97936.59;;;12.78;81.48
39357;BME280;25077;50.302;18.996;2022-08-01T03:14:44;97924.19;;;12.77;81.70
39357;BME280;25077;50.302;18.996;2022-08-01T03:17:51;97922.56;;;12.76;81.24
39357;BME280;25077;50.302;18.996;2022-08-01T03:20:55;97924.19;;;12.77;81.93
39357;BME280;25077;50.302;18.996;2022-08-01T03:23:59;97922.25;;;12.77;81.61
39357;BME280;25077;50.302;18.996;2022-08-01T03:27:03;97926.13;;;12.80;82.46
39357;BME280;25077;50.302;18.996;2022-08-01T03:30:06;97926.50;;;12.82;82.57
39357;BME280;25077;50.302;18.996;2022-08-01T03:33:10;97929.25;;;12.85;81.68
39357;BME280;25077;50.302;18.996;2022-08-01T03:36:12;97937.78;;;12.87;81.36
39357;BME280;25077;50.302;18.996;2022-08-01T03:39:16;97937.81;;;12.91;82.30
39357;BME280;25077;50.302;18.996;2022-08-01T03:42:25;97935.91;;;12.95;82.02
39357;BME280;25077;50.302;18.996;2022-08-01T03:45:34;97937.84;;;12.98;82.08
39357;BME280;25077;50.302;18.996;2022-08-01T03:48:41;97941.75;;;13.01;81.62
39357;BME280;25077;50.302;18.996;2022-08-01T03:51:45;97938.66;;;13.02;81.46
39357;BME280;25077;50.302;18.996;2022-08-01T03:54:49;97944.88;;;13.03;82.26
39357;BME280;25077;50.302;18.996;2022-08-01T03:57:53;97944.88;;;13.03;81.91
39357;BME280;25077;50.302;18.996;2022-08-01T04:00:55;97952.63;;;13.04;81.33
39357;BME280;25077;50.302;18.996;2022-08-01T04:03:59;97951.88;;;13.07;82.20
39357;BME280;25077;50.302;18.996;2022-08-01T04:07:02;97951.09;;;13.10;81.98
39357;BME280;25077;50.302;18.996;2022-08-01T04:10:07;97954.63;;;13.14;82.12
39357;BME280;25077;50.302;18.996;2022-08-01T04:13:09;97955.81;;;13.21;81.80
39357;BME280;25077;50.302;18.996;2022-08-01T04:16:11;97957.75;;;13.27;81.42
39357;BME280;25077;50.302;18.996;2022-08-01T04:19:14;97954.69;;;13.36;81.71
39357;BME280;25077;50.302;18.996;2022-08-01T04:22:16;97956.25;;;13.44;81.47
39357;BME280;25077;50.302;18.996;2022-08-01T04:25:24;97948.16;;;13.51;81.59
39357;BME280;25077;50.302;18.996;2022-08-01T04:28:28;97949.69;;;13.59;81.87
39357;BME280;25077;50.302;18.996;2022-08-01T04:31:31;97953.59;;;13.65;81.31
39357;BME280;25077;50.302;18.996;2022-08-01T04:34:38;97952.06;;;13.72;81.21
39357;BME280;25077;50.302;18.996;2022-08-01T04:37:41;97943.50;;;13.77;81.64
39357;BME280;25077;50.302;18.996;2022-08-01T04:40:44;97949.34;;;13.82;81.13
39357;BME280;25077;50.302;18.996;2022-08-01T04:43:47;97951.28;;;13.89;80.61
39357;BME280;25077;50.302;18.996;2022-08-01T04:46:50;97951.72;;;13.91;80.93
39357;BME280;25077;50.302;18.996;2022-08-01T04:49:56;97958.34;;;13.97;80.91
39357;BME280;25077;50.302;18.996;2022-08-01T04:52:58;97958.34;;;14.01;81.04
39357;BME280;25077;50.302;18.996;2022-08-01T04:56:00;97957.19;;;14.02;81.08
39357;BME280;25077;50.302;18.996;2022-08-01T04:59:02;97961.47;;;14.03;80.95
39357;BME280;25077;50.302;18.996;2022-08-01T05:02:21;97956.00;;;14.06;80.83
39357;BME280;25077;50.302;18.996;2022-08-01T05:05:24;97963.78;;;14.11;80.94
39357;BME280;25077;50.302;18.996;2022-08-01T05:08:27;97954.47;;;14.16;81.40
39357;BME280;25077;50.302;18.996;2022-08-01T05:11:29;97956.41;;;14.23;80.77
39357;BME280;25077;50.302;18.996;2022-08-01T05:14:32;97954.84;;;14.29;80.88
39357;BME280;25077;50.302;18.996;2022-08-01T05:17:34;97957.94;;;14.34;80.79
39357;BME280;25077;50.302;18.996;2022-08-01T05:20:38;97960.69;;;14.38;81.04
39357;BME280;25077;50.302;18.996;2022-08-01T05:23:39;97963.78;;;14.43;80.61
39357;BME280;25077;50.302;18.996;2022-08-01T05:26:41;97962.22;;;14.53;80.90
39357;BME280;25077;50.302;18.996;2022-08-01T05:29:43;97963.75;;;14.61;80.56
39357;BME280;25077;50.302;18.996;2022-08-01T05:32:45;97959.06;;;14.69;80.65
39357;BME280;25077;50.302;18.996;2022-08-01T05:35:49;97957.09;;;14.77;80.36
39357;BME280;25077;50.302;18.996;2022-08-01T05:38:50;97947.72;;;14.85;80.24
39357;BME280;25077;50.302;18.996;2022-08-01T05:41:52;97944.19;;;14.91;79.59
39357;BME280;25077;50.302;18.996;2022-08-01T05:44:54;97944.56;;;14.97;78.96
39357;BME280;25077;50.302;18.996;2022-08-01T05:47:56;97957.47;;;15.04;79.17
39357;BME280;25077;50.302;18.996;2022-08-01T05:50:59;97950.00;;;15.11;78.98
39357;BME280;25077;50.302;18.996;2022-08-01T05:54:01;97958.16;;;15.22;78.66
39357;BME280;25077;50.302;18.996;2022-08-01T05:57:04;97959.66;;;15.34;78.88
39357;BME280;25077;50.302;18.996;2022-08-01T06:00:07;97954.53;;;15.46;78.40
39357;BME280;25077;50.302;18.996;2022-08-01T06:03:13;97957.97;;;15.58;77.86
39357;BME280;25077;50.302;18.996;2022-08-01T06:06:17;97964.13;;;15.69;77.58
39357;BME280;25077;50.302;18.996;2022-08-01T06:09:19;97964.44;;;15.82;77.41
39357;BME280;25077;50.302;18.996;2022-08-01T06:12:20;97963.97;;;15.94;77.36
39357;BME280;25077;50.302;18.996;2022-08-01T06:15:22;97965.88;;;16.04;76.86
39357;BME280;25077;50.302;18.996;2022-08-01T06:18:24;97963.84;;;16.15;76.52
39357;BME280;25077;50.302;18.996;2022-08-01T06:21:28;97968.81;;;16.27;76.00
39357;BME280;25077;50.302;18.996;2022-08-01T06:24:29;97962.91;;;16.36;75.41
39357;BME280;25077;50.302;18.996;2022-08-01T06:27:34;97961.25;;;16.46;75.02
39357;BME280;25077;50.302;18.996;2022-08-01T06:30:36;97963.09;;;16.56;74.59
39357;BME280;25077;50.302;18.996;2022-08-01T06:33:38;97957.13;;;16.68;74.50
39357;BME280;25077;50.302;18.996;2022-08-01T06:36:42;97960.53;;;16.79;73.91
39357;BME280;25077;50.302;18.996;2022-08-01T06:39:44;97970.94;;;16.92;72.47
39357;BME280;25077;50.302;18.996;2022-08-01T06:42:46;97974.72;;;17.05;72.54
39357;BME280;25077;50.302;18.996;2022-08-01T06:45:48;97983.59;;;17.16;70.24
39357;BME280;25077;50.302;18.996;2022-08-01T06:48:50;97970.19;;;17.25;70.32
39357;BME280;25077;50.302;18.996;2022-08-01T06:51:53;97978.19;;;17.43;70.64
39357;BME280;25077;50.302;18.996;2022-08-01T06:54:55;97972.47;;;17.61;70.21
39357;BME280;25077;50.302;18.996;2022-08-01T06:57:57;97970.72;;;17.74;69.15
39357;BME280;25077;50.302;18.996;2022-08-01T07:00:59;97969.63;;;17.99;69.17
39357;BME280;25077;50.302;18.996;2022-08-01T07:04:01;97964.53;;;18.21;69.33
39357;BME280;25077;50.302;18.996;2022-08-01T07:07:05;97962.59;;;18.45;68.09
39357;BME280;25077;50.302;18.996;2022-08-01T07:10:08;97959.31;;;18.77;68.37
39357;BME280;25077;50.302;18.996;2022-08-01T07:13:10;97962.28;;;19.06;67.92
39357;BME280;25077;50.302;18.996;2022-08-01T07:16:12;97959.09;;;19.27;66.87
39357;BME280;25077;50.302;18.996;2022-08-01T07:19:15;97955.31;;;19.41;64.70
39357;BME280;25077;50.302;18.996;2022-08-01T07:22:18;97954.16;;;19.58;63.38
39357;BME280;25077;50.302;18.996;2022-08-01T07:25:20;97966.38;;;19.73;63.26
39357;BME280;25077;50.302;18.996;2022-08-01T07:28:22;97969.91;;;19.90;64.07
39357;BME280;25077;50.302;18.996;2022-08-01T07:31:24;97965.97;;;20.08;63.57
39357;BME280;25077;50.302;18.996;2022-08-01T07:34:27;97954.97;;;20.24;63.69
39357;BME280;25077;50.302;18.996;2022-08-01T07:37:33;97961.09;;;20.32;62.33
39357;BME280;25077;50.302;18.996;2022-08-01T07:40:35;97945.38;;;20.32;61.33
39357;BME280;25077;50.302;18.996;2022-08-01T07:43:40;97952.25;;;20.40;61.68
39357;BME280;25077;50.302;18.996;2022-08-01T07:46:43;97949.69;;;20.49;60.54
39357;BME280;25077;50.302;18.996;2022-08-01T07:49:46;97947.84;;;20.59;60.11
39357;BME280;25077;50.302;18.996;2022-08-01T07:52:49;97949.91;;;20.71;60.09
39357;BME280;25077;50.302;18.996;2022-08-01T07:55:52;97948.41;;;20.83;58.03
39357;BME280;25077;50.302;18.996;2022-08-01T07:58:54;97951.63;;;20.94;58.72
39357;BME280;25077;50.302;18.996;2022-08-01T08:01:56;97942.63;;;21.07;57.66
39357;BME280;25077;50.302;18.996;2022-08-01T08:04:58;97940.78;;;21.16;56.90
39357;BME280;25077;50.302;18.996;2022-08-01T08:08:02;97946.34;;;21.29;57.05
39357;BME280;25077;50.302;18.996;2022-08-01T08:11:04;97942.38;;;21.30;56.73
39357;BME280;25077;50.302;18.996;2022-08-01T08:14:06;97945.69;;;21.38;56.67
39357;BME280;25077;50.302;18.996;2022-08-01T08:17:08;97942.75;;;21.45;56.30
39357;BME280;25077;50.302;18.996;2022-08-01T08:20:10;97946.06;;;21.52;54.68
39357;BME280;25077;50.302;18.996;2022-08-01T08:23:14;97951.34;;;21.60;55.89
39357;BME280;25077;50.302;18.996;2022-08-01T08:26:33;97954.00;;;21.50;54.54
39357;BME280;25077;50.302;18.996;2022-08-01T08:29:36;97950.25;;;21.57;55.50
39357;BME280;25077;50.302;18.996;2022-08-01T08:32:38;97954.00;;;21.76;55.38
39357;BME280;25077;50.302;18.996;2022-08-01T08:35:40;97954.66;;;21.80;55.32
39357;BME280;25077;50.302;18.996;2022-08-01T08:38:44;97957.50;;;21.89;53.89
39357;BME280;25077;50.302;18.996;2022-08-01T08:41:46;97962.09;;;21.96;53.14
39357;BME280;25077;50.302;18.996;2022-08-01T08:44:48;97958.53;;;21.95;54.74
39357;BME280;25077;50.302;18.996;2022-08-01T08:47:50;97959.97;;;22.00;54.88
39357;BME280;25077;50.302;18.996;2022-08-01T08:50:53;97954.03;;;22.01;55.02
39357;BME280;25077;50.302;18.996;2022-08-01T08:53:58;97954.56;;;22.09;55.08
39357;BME280;25077;50.302;18.996;2022-08-01T08:57:01;97960.06;;;22.22;55.08
39357;BME280;25077;50.302;18.996;2022-08-01T09:03:05;97973.84;;;22.22;53.22
39357;BME280;25077;50.302;18.996;2022-08-01T09:06:07;97963.72;;;22.19;53.82
39357;BME280;25077;50.302;18.996;2022-08-01T09:09:11;97974.75;;;22.19;54.18
39357;BME280;25077;50.302;18.996;2022-08-01T09:12:16;97965.47;;;22.25;53.92
39357;BME280;25077;50.302;18.996;2022-08-01T09:15:27;97973.41;;;22.36;52.79
39357;BME280;25077;50.302;18.996;2022-08-01T09:18:39;97978.91;;;22.36;52.79
39357;BME280;25077;50.302;18.996;2022-08-01T09:21:55;97977.16;;;22.17;49.79
39357;BME280;25077;50.302;18.996;2022-08-01T09:25:02;97983.22;;;22.12;52.39
39357;BME280;25077;50.302;18.996;2022-08-01T09:28:06;97974.94;;;22.12;51.72
39357;BME280;25077;50.302;18.996;2022-08-01T09:31:10;97977.81;;;22.21;53.19
39357;BME280;25077;50.302;18.996;2022-08-01T09:34:12;97981.53;;;22.40;53.03
39357;BME280;25077;50.302;18.996;2022-08-01T09:37:15;97980.19;;;22.44;52.10
39357;BME280;25077;50.302;18.996;2022-08-01T09:40:19;97983.53;;;22.39;51.77
39357;BME280;25077;50.302;18.996;2022-08-01T09:43:24;97978.16;;;22.35;51.54
39357;BME280;25077;50.302;18.996;2022-08-01T09:46:26;97985.97;;;22.37;51.25
39357;BME280;25077;50.302;18.996;2022-08-01T09:49:31;97984.50;;;22.45;51.24
39357;BME280;25077;50.302;18.996;2022-08-01T09:52:34;97984.72;;;22.51;50.96
39357;BME280;25077;50.302;18.996;2022-08-01T09:55:38;97986.91;;;22.56;50.46
39357;BME280;25077;50.302;18.996;2022-08-01T09:58:56;97983.38;;;22.55;50.04
39357;BME280;25077;50.302;18.996;2022-08-01T10:01:58;97988.44;;;22.57;51.46
39357;BME280;25077;50.302;18.996;2022-08-01T10:05:00;97983.91;;;22.63;51.78
39357;BME280;25077;50.302;18.996;2022-08-01T10:08:04;97987.56;;;22.73;51.79
39357;BME280;25077;50.302;18.996;2022-08-01T10:11:10;97978.44;;;22.85;51.46
39357;BME280;25077;50.302;18.996;2022-08-01T10:14:12;97981.19;;;22.98;51.09
39357;BME280;25077;50.302;18.996;2022-08-01T10:17:17;97975.19;;;22.99;50.79
39357;BME280;25077;50.302;18.996;2022-08-01T10:20:21;97971.59;;;23.11;50.79
39357;BME280;25077;50.302;18.996;2022-08-01T10:23:25;97975.78;;;23.16;48.51
39357;BME280;25077;50.302;18.996;2022-08-01T10:26:32;97978.41;;;23.20;49.52
39357;BME280;25077;50.302;18.996;2022-08-01T10:29:37;97984.56;;;23.24;49.85
39357;BME280;25077;50.302;18.996;2022-08-01T10:32:39;97981.53;;;23.31;49.51
39357;BME280;25077;50.302;18.996;2022-08-01T10:35:45;97977.66;;;23.41;47.94
39357;BME280;25077;50.302;18.996;2022-08-01T10:38:47;97965.94;;;23.37;48.37
39357;BME280;25077;50.302;18.996;2022-08-01T10:41:50;97966.84;;;23.34;49.28
39357;BME280;25077;50.302;18.996;2022-08-01T10:44:53;97969.41;;;23.50;48.98
39357;BME280;25077;50.302;18.996;2022-08-01T10:47:58;97968.88;;;23.64;49.21
39357;BME280;25077;50.302;18.996;2022-08-01T10:51:04;97980.63;;;23.78;48.97
39357;BME280;25077;50.302;18.996;2022-08-01T10:54:07;97971.97;;;23.66;48.44
39357;BME280;25077;50.302;18.996;2022-08-01T10:57:12;97972.97;;;23.60;48.51
39357;BME280;25077;50.302;18.996;2022-08-01T11:00:17;97968.88;;;23.64;48.80
39357;BME280;25077;50.302;18.996;2022-08-01T11:03:32;97975.53;;;23.76;48.45
39357;BME280;25077;50.302;18.996;2022-08-01T11:06:54;97974.16;;;23.81;45.81
39357;BME280;25077;50.302;18.996;2022-08-01T11:10:09;97974.56;;;23.70;47.57
39357;BME280;25077;50.302;18.996;2022-08-01T11:17:29;97984.13;;;23.47;46.50
39357;BME280;25077;50.302;18.996;2022-08-01T11:20:33;97989.03;;;23.43;47.15
39357;BME280;25077;50.302;18.996;2022-08-01T11:23:47;97977.63;;;23.19;46.90
39357;BME280;25077;50.302;18.996;2022-08-01T11:27:16;97979.69;;;23.06;47.87
39357;BME280;25077;50.302;18.996;2022-08-01T11:30:23;97979.56;;;23.09;49.17
39357;BME280;25077;50.302;18.996;2022-08-01T11:33:48;97972.75;;;23.01;48.06
39357;BME280;25077;50.302;18.996;2022-08-01T11:37:25;97965.03;;;22.96;48.41
39357;BME280;25077;50.302;18.996;2022-08-01T11:40:28;97966.34;;;23.04;49.16
39357;BME280;25077;50.302;18.996;2022-08-01T11:43:30;97970.34;;;23.03;49.25
39357;BME280;25077;50.302;18.996;2022-08-01T11:46:51;97969.09;;;23.04;48.67
39357;BME280;25077;50.302;18.996;2022-08-01T11:49:53;97974.63;;;23.26;50.60
39357;BME280;25077;50.302;18.996;2022-08-01T11:52:58;97971.59;;;23.55;48.99
39357;BME280;25077;50.302;18.996;2022-08-01T11:56:00;97967.81;;;23.71;49.04
39357;BME280;25077;50.302;18.996;2022-08-01T11:59:02;97960.50;;;24.17;49.16
39357;BME280;25077;50.302;18.996;2022-08-01T12:02:16;97952.91;;;25.04;47.79
39357;BME280;25077;50.302;18.996;2022-08-01T12:05:19;97954.28;;;25.78;48.07
39357;BME280;25077;50.302;18.996;2022-08-01T12:08:25;97951.66;;;26.17;47.39
39357;BME280;25077;50.302;18.996;2022-08-01T12:11:27;97953.72;;;26.79;45.89
39357;BME280;25077;50.302;18.996;2022-08-01T12:14:29;97961.94;;;26.74;43.63
39357;BME280;25077;50.302;18.996;2022-08-01T12:17:35;97945.50;;;26.61;44.30
39357;BME280;25077;50.302;18.996;2022-08-01T12:20:39;97947.88;;;26.53;45.04
39357;BME280;25077;50.302;18.996;2022-08-01T12:23:41;97947.06;;;26.62;46.05
39357;BME280;25077;50.302;18.996;2022-08-01T12:26:43;97942.03;;;26.75;45.64
39357;BME280;25077;50.302;18.996;2022-08-01T12:29:45;97941.09;;;26.78;44.50
39357;BME280;25077;50.302;18.996;2022-08-01T12:32:49;97942.97;;;26.48;44.46
39357;BME280;25077;50.302;18.996;2022-08-01T12:35:51;97940.19;;;25.91;44.30
39357;BME280;25077;50.302;18.996;2022-08-01T12:38:53;97944.22;;;25.48;44.81
39357;BME280;25077;50.302;18.996;2022-08-01T12:41:57;97941.00;;;25.40;45.16
39357;BME280;25077;50.302;18.996;2022-08-01T12:44:59;97936.22;;;25.41;45.62
39357;BME280;25077;50.302;18.996;2022-08-01T12:48:07;97935.72;;;25.51;45.13
39357;BME280;25077;50.302;18.996;2022-08-01T12:51:09;97931.94;;;25.82;46.42
39357;BME280;25077;50.302;18.996;2022-08-01T12:54:13;97934.72;;;26.39;45.48
39357;BME280;25077;50.302;18.996;2022-08-01T12:57:22;97933.31;;;26.59;40.88
39357;BME280;25077;50.302;18.996;2022-08-01T13:00:26;97926.00;;;26.70;44.50
39357;BME280;25077;50.302;18.996;2022-08-01T13:03:29;97924.09;;;27.30;43.89
39357;BME280;25077;50.302;18.996;2022-08-01T13:06:31;97930.41;;;28.10;43.41
39357;BME280;25077;50.302;18.996;2022-08-01T13:09:33;97920.31;;;28.74;43.48
39357;BME280;25077;50.302;18.996;2022-08-01T13:12:35;97930.09;;;29.10;42.75
39357;BME280;25077;50.302;18.996;2022-08-01T13:15:39;97927.50;;;29.58;42.30
39357;BME280;25077;50.302;18.996;2022-08-01T13:18:47;97912.28;;;30.39;37.05
39357;BME280;25077;50.302;18.996;2022-08-01T13:21:56;97919.56;;;30.20;39.26
39357;BME280;25077;50.302;18.996;2022-08-01T13:25:10;97918.28;;;30.21;34.31
39357;BME280;25077;50.302;18.996;2022-08-01T13:28:15;97914.22;;;29.79;38.73
39357;BME280;25077;50.302;18.996;2022-08-01T13:31:17;97923.28;;;29.42;39.27
39357;BME280;25077;50.302;18.996;2022-08-01T13:34:30;97923.69;;;29.04;36.48
39357;BME280;25077;50.302;18.996;2022-08-01T13:37:32;97921.56;;;29.45;40.85
39357;BME280;25077;50.302;18.996;2022-08-01T13:40:35;97909.44;;;30.28;40.04
39357;BME280;25077;50.302;18.996;2022-08-01T13:43:37;97910.53;;;30.42;39.15
39357;BME280;25077;50.302;18.996;2022-08-01T13:46:40;97912.09;;;30.06;37.95
39357;BME280;25077;50.302;18.996;2022-08-01T13:49:43;97928.41;;;29.18;38.03
39357;BME280;25077;50.302;18.996;2022-08-01T13:52:45;97923.28;;;28.44;38.24
39357;BME280;25077;50.302;18.996;2022-08-01T13:55:47;97916.50;;;27.45;39.17
39357;BME280;25077;50.302;18.996;2022-08-01T13:58:49;97914.78;;;27.18;40.30
39357;BME280;25077;50.302;18.996;2022-08-01T14:01:51;97910.25;;;27.06;40.85
39357;BME280;25077;50.302;18.996;2022-08-01T14:04:55;97910.00;;;27.33;41.56
39357;BME280;25077;50.302;18.996;2022-08-01T14:07:59;97908.81;;;27.55;41.74
39357;BME280;25077;50.302;18.996;2022-08-01T14:11:00;97909.97;;;28.33;41.75
39357;BME280;25077;50.302;18.996;2022-08-01T14:14:02;97918.63;;;29.28;41.33
39357;BME280;25077;50.302;18.996;2022-08-01T14:17:05;97916.81;;;29.88;40.24
39357;BME280;25077;50.302;18.996;2022-08-01T14:20:09;97913.44;;;29.47;37.92
39357;BME280;25077;50.302;18.996;2022-08-01T14:23:12;97924.00;;;29.06;39.32
39357;BME280;25077;50.302;18.996;2022-08-01T14:26:14;97919.56;;;28.53;38.94
39357;BME280;25077;50.302;18.996;2022-08-01T14:29:16;97914.47;;;28.10;39.22
39357;BME280;25077;50.302;18.996;2022-08-01T14:32:17;97917.63;;;28.38;40.53
39357;BME280;25077;50.302;18.996;2022-08-01T14:35:21;97927.22;;;28.78;38.31
39357;BME280;25077;50.302;18.996;2022-08-01T14:38:23;97930.19;;;29.47;39.39
39357;BME280;25077;50.302;18.996;2022-08-01T14:41:25;97925.56;;;29.70;39.05
39357;BME280;25077;50.302;18.996;2022-08-01T14:44:27;97925.56;;;30.07;35.52
39357;BME280;25077;50.302;18.996;2022-08-01T14:47:29;97931.31;;;29.92;37.39
39357;BME280;25077;50.302;18.996;2022-08-01T14:50:32;97933.22;;;29.49;38.08
39357;BME280;25077;50.302;18.996;2022-08-01T14:53:34;97941.13;;;28.99;38.30
39357;BME280;25077;50.302;18.996;2022-08-01T14:56:38;97931.03;;;28.40;39.38
39357;BME280;25077;50.302;18.996;2022-08-01T14:59:40;97928.31;;;28.05;38.91
39357;BME280;25077;50.302;18.996;2022-08-01T15:02:42;97932.78;;;27.67;39.63
39357;BME280;25077;50.302;18.996;2022-08-01T15:05:46;97931.25;;;27.22;40.67
39357;BME280;25077;50.302;18.996;2022-08-01T15:08:48;97937.13;;;27.53;39.76
39357;BME280;25077;50.302;18.996;2022-08-01T15:11:50;97934.03;;;28.16;39.79
39357;BME280;25077;50.302;18.996;2022-08-01T15:14:52;97943.88;;;27.82;40.20
39357;BME280;25077;50.302;18.996;2022-08-01T15:17:54;97937.59;;;27.52;40.30
39357;BME280;25077;50.302;18.996;2022-08-01T15:20:58;97934.78;;;26.93;40.77
39357;BME280;25077;50.302;18.996;2022-08-01T15:24:00;97938.09;;;26.67;41.40
39357;BME280;25077;50.302;18.996;2022-08-01T15:27:02;97940.66;;;26.47;42.14
39357;BME280;25077;50.302;18.996;2022-08-01T15:30:05;97937.38;;;26.34;41.75
39357;BME280;25077;50.302;18.996;2022-08-01T15:33:07;97938.78;;;25.96;42.51
39357;BME280;25077;50.302;18.996;2022-08-01T15:36:10;97940.97;;;25.59;42.88
39357;BME280;25077;50.302;18.996;2022-08-01T15:39:12;97934.34;;;25.47;43.62
39357;BME280;25077;50.302;18.996;2022-08-01T15:42:19;97938.41;;;25.18;44.70
39357;BME280;25077;50.302;18.996;2022-08-01T15:45:24;97950.75;;;24.90;45.77
39357;BME280;25077;50.302;18.996;2022-08-01T15:48:27;97952.63;;;24.75;46.30
39357;BME280;25077;50.302;18.996;2022-08-01T15:51:31;97939.34;;;24.69;46.31
39357;BME280;25077;50.302;18.996;2022-08-01T15:54:33;97941.16;;;25.18;46.12
39357;BME280;25077;50.302;18.996;2022-08-01T15:57:35;97938.56;;;25.75;45.68
39357;BME280;25077;50.302;18.996;2022-08-01T16:00:37;97938.66;;;25.90;44.40
39357;BME280;25077;50.302;18.996;2022-08-01T16:03:40;97930.78;;;25.56;44.14
39357;BME280;25077;50.302;18.996;2022-08-01T16:06:44;97942.38;;;25.45;44.61
39357;BME280;25077;50.302;18.996;2022-08-01T16:09:46;97935.00;;;25.23;44.46
39357;BME280;25077;50.302;18.996;2022-08-01T16:12:48;97927.97;;;24.95;45.09